Terminal Aerodrome Forecast
Issued by NWS Wilmington, OH

Home | Current Version | Previous Version | Text Only | Print | Product List | Glossary On
Versions: 1 2 3 4 5 6 7 8 9 10 11 12 13 14 15 16 17 18
784
FTUS41 KILN 200006 AAA
TAFILN
TAF AMD
KILN 200006Z 2000/2024 VRB03KT P6SM VCSH BKN040
      TEMPO 2000/2001 BKN025
     FM200200 VRB03KT P6SM SCT250
     FM200700 VRB03KT 5SM BR SCT015
     FM201000 VRB03KT 1SM BR BKN012
     FM201400 VRB04KT P6SM BKN015
     FM201700 24005KT P6SM SCT050=

USA.gov is the U.S. government's official web portal to all federal, state and local government web resources and services.